Terminal Aerodrome Forecast
Issued by NWS Omaha/Valley, NE

Home | Current Version | Previous Version | Graphics & Text | Print | Product List | Glossary On
Versions: 1 2 3 4 5 6 7 8 9 10 11 12 13 14 15 16 17 18 19
000
FTUS43 KOAX 231120
TAFOFK
TAF
KOFK 231120Z 2312/2412 31009KT P6SM VCSH BKN060
     FM231500 33012G22KT P6SM VCSH BKN060
     FM231700 33020G28KT P6SM VCSH BKN035
     FM240000 34011KT P6SM BKN060=

USA.gov is the U.S. government's official web portal to all federal, state and local government web resources and services.